Time;durP1;ratioP1;P1;durP2;ratioP2;P2;SDS_P1;SDS_P2;PMS_P1;PMS_P2;Temp;Humidity;BMP_temperature;BMP_pressure;BME280_temperature;BME280_humidity;BME280_pressure;Samples;Min_cycle;Max_cycle;Signal;HPM_P1;HPM_P2
2022/04/09 00:02:14;;;;;;;;;18.00;14.33;17.80;44.90;;;;;;4937751;29;8791;-62
2022/04/09 00:04:40;;;;;;;;;8.00;7.00;18.10;44.10;;;;;;4938183;29;8787;-62
2022/04/09 00:07:06;;;;;;;;;10.00;10.00;17.80;44.50;;;;;;4938035;29;8937;-62
2022/04/09 00:09:31;;;;;;;;;10.00;10.00;17.50;45.90;;;;;;4938075;29;8905;-61
2022/04/09 00:11:57;;;;;;;;;12.00;11.00;17.50;45.70;;;;;;4945375;28;8823;-62
2022/04/09 00:14:24;;;;;;;;;12.33;11.33;17.40;45.90;;;;;;4956941;28;8808;-61
2022/04/09 00:16:50;;;;;;;;;10.33;8.67;18.00;44.50;;;;;;4956853;28;8981;-61
2022/04/09 00:19:16;;;;;;;;;7.00;7.00;18.50;43.20;;;;;;4957109;28;8899;-60
2022/04/09 00:21:41;;;;;;;;;12.33;12.33;18.20;43.90;;;;;;4956702;28;8866;-61
2022/04/09 00:24:08;;;;;;;;;17.00;17.00;18.50;43.10;;;;;;4956740;28;8889;-62
2022/04/09 00:26:33;;;;;;;;;12.33;12.33;18.20;43.80;;;;;;4956966;28;8800;-61
2022/04/09 00:28:59;;;;;;;;;16.00;12.00;17.90;44.70;;;;;;4956892;28;9459;-60
2022/04/09 00:31:25;;;;;;;;;10.33;9.00;17.70;45.60;;;;;;4956636;28;8788;-62
2022/04/09 00:33:51;;;;;;;;;25.67;23.00;17.70;45.60;;;;;;4956880;28;8890;-60
2022/04/09 00:36:16;;;;;;;;;18.00;18.00;17.80;45.10;;;;;;4956785;28;8795;-61
2022/04/09 00:38:42;;;;;;;;;18.33;16.67;17.70;45.60;;;;;;4956451;28;8808;-60
2022/04/09 00:41:11;;;;;;;;;19.33;18.33;17.90;45.10;;;;;;4956280;28;8836;-63
2022/04/09 00:43:40;;;;;;;;;11.00;11.00;18.50;43.70;;;;;;4956518;28;8803;-61
2022/04/09 00:46:07;;;;;;;;;12.67;11.00;18.50;43.40;;;;;;4956372;28;8801;-60
2022/04/09 00:48:36;;;;;;;;;13.67;12.33;18.80;43.00;;;;;;4942270;28;9418;-62
2022/04/09 00:51:01;;;;;;;;;12.00;11.33;18.60;43.30;;;;;;4937199;29;9753;-61
2022/04/09 00:53:34;;;;;;;;;13.67;11.00;18.00;44.70;;;;;;4947311;28;8800;-61
2022/04/09 00:56:16;;;;;;;;;11.00;10.33;18.00;45.30;;;;;;4956478;28;8882;-62
2022/04/09 00:58:55;;;;;;;;;11.33;11.33;18.00;45.10;;;;;;4956389;28;8776;-63
2022/04/09 01:01:28;;;;;;;;;10.00;9.00;18.00;45.40;;;;;;4956233;28;8808;-61
2022/04/09 01:03:55;;;;;;;;;9.00;9.00;18.30;44.40;;;;;;4956522;28;8906;-61
2022/04/09 01:06:21;;;;;;;;;9.00;8.67;18.80;43.20;;;;;;4956151;28;8788;-61
2022/04/09 01:08:47;;;;;;;;;9.67;9.67;19.20;42.40;;;;;;4956541;29;8882;-62
2022/04/09 01:11:14;;;;;;;;;10.67;10.67;19.70;41.50;;;;;;4956150;29;8803;-60
2022/04/09 01:13:41;;;;;;;;;11.00;11.00;19.90;41.20;;;;;;4937311;29;8771;-60
2022/04/09 01:16:08;;;;;;;;;16.33;14.67;19.80;41.20;;;;;;4937218;29;8791;-61
2022/04/09 01:18:34;;;;;;;;;12.67;12.67;20.00;41.00;;;;;;4937000;29;8826;-61
2022/04/09 01:21:02;;;;;;;;;14.33;13.00;20.10;41.30;;;;;;4936755;29;8819;-62
2022/04/09 01:23:28;;;;;;;;;18.67;17.00;20.10;41.30;;;;;;4937127;29;8805;-63
2022/04/09 01:25:59;;;;;;;;;22.67;17.67;20.00;41.10;;;;;;4937089;29;8815;-63
2022/04/09 01:28:25;;;;;;;;;15.33;15.00;20.10;41.50;;;;;;4936864;29;8902;-61
2022/04/09 01:30:52;;;;;;;;;16.00;16.00;19.90;41.50;;;;;;4937108;29;8890;-61
2022/04/09 01:33:19;;;;;;;;;16.33;11.33;19.90;41.50;;;;;;4936863;29;8775;-63
2022/04/09 01:35:45;;;;;;;;;12.33;10.67;20.00;41.20;;;;;;4936963;29;8779;-62
2022/04/09 01:38:11;;;;;;;;;10.67;9.67;19.50;41.70;;;;;;4936837;29;8835;-64
2022/04/09 01:40:37;;;;;;;;;10.33;10.33;19.20;42.60;;;;;;4936901;29;8822;-64
2022/04/09 01:43:03;;;;;;;;;9.00;9.00;19.30;42.20;;;;;;4936678;29;8862;-62
2022/04/09 01:45:29;;;;;;;;;9.00;9.00;18.80;43.60;;;;;;4936930;29;8782;-61
2022/04/09 01:47:55;;;;;;;;;9.33;9.00;19.00;43.00;;;;;;4936701;29;8833;-63
2022/04/09 01:50:21;;;;;;;;;8.00;8.00;18.80;43.90;;;;;;4936767;29;8861;-62
2022/04/09 01:52:47;;;;;;;;;6.00;6.00;19.30;42.70;;;;;;4936715;29;8798;-63
2022/04/09 01:55:14;;;;;;;;;7.00;7.00;19.60;42.30;;;;;;4936711;29;8787;-62
2022/04/09 01:57:39;;;;;;;;;11.00;10.67;19.70;42.70;;;;;;4936895;29;8775;-62
2022/04/09 02:00:08;;;;;;;;;9.00;7.00;19.70;42.40;;;;;;4936831;29;8853;-61
2022/04/09 02:02:34;;;;;;;;;9.00;9.00;19.60;42.50;;;;;;4949189;29;8922;-61
2022/04/09 02:05:00;;;;;;;;;7.00;7.00;19.50;43.20;;;;;;4955760;29;8803;-61
2022/04/09 02:07:27;;;;;;;;;13.00;13.00;19.30;42.90;;;;;;4958221;28;8816;-61
2022/04/09 02:09:54;;;;;;;;;12.00;11.00;19.50;43.00;;;;;;4959182;28;8780;-60
2022/04/09 02:12:20;;;;;;;;;10.33;10.00;19.40;43.00;;;;;;4959136;28;8776;-62
2022/04/09 02:14:45;;;;;;;;;8.67;7.00;19.50;42.80;;;;;;4959349;28;8777;-61
2022/04/09 02:17:12;;;;;;;;;8.00;8.00;19.60;42.60;;;;;;4959252;28;8788;-61
2022/04/09 02:19:38;;;;;;;;;9.33;9.00;19.30;43.10;;;;;;4959193;28;8776;-61
2022/04/09 02:22:04;;;;;;;;;9.00;9.00;19.10;44.00;;;;;;4958934;28;8793;-61
2022/04/09 02:24:31;;;;;;;;;9.00;8.67;19.00;44.50;;;;;;4959226;28;8788;-63
2022/04/09 02:26:57;;;;;;;;;7.00;7.00;18.90;44.70;;;;;;4959124;28;8903;-63
2022/04/09 02:29:23;;;;;;;;;8.00;8.00;18.80;44.60;;;;;;4958868;28;9403;-64
2022/04/09 02:31:48;;;;;;;;;7.00;7.00;18.80;44.80;;;;;;4959033;28;8788;-60
2022/04/09 02:34:14;;;;;;;;;7.00;7.00;18.70;45.40;;;;;;4949125;29;8795;-61
2022/04/09 02:36:40;;;;;;;;;9.00;7.33;18.60;45.30;;;;;;4939447;29;8894;-62
2022/04/09 02:39:06;;;;;;;;;8.00;7.33;18.50;45.50;;;;;;4939929;29;8830;-61
2022/04/09 02:41:32;;;;;;;;;8.33;8.00;18.50;45.90;;;;;;4939314;29;8854;-61
2022/04/09 02:43:59;;;;;;;;;9.67;9.67;18.40;46.20;;;;;;4939322;29;8787;-62
2022/04/09 02:46:25;;;;;;;;;8.00;8.00;18.30;46.50;;;;;;4939608;28;8779;-62
2022/04/09 02:48:51;;;;;;;;;10.00;8.00;18.20;46.60;;;;;;4939569;29;8789;-64
2022/04/09 02:51:18;;;;;;;;;9.33;9.33;18.30;46.40;;;;;;4939190;29;9607;-63
2022/04/09 02:53:45;;;;;;;;;10.00;9.67;18.60;45.80;;;;;;4939511;29;9469;-63
2022/04/09 02:56:11;;;;;;;;;9.67;9.67;18.60;45.80;;;;;;4939201;29;8779;-61
2022/04/09 02:58:37;;;;;;;;;11.67;10.67;18.70;45.70;;;;;;4939317;29;9457;-62
2022/04/09 03:01:03;;;;;;;;;13.00;13.00;18.90;45.20;;;;;;4939043;29;8823;-63
2022/04/09 03:03:28;;;;;;;;;9.00;9.00;18.10;47.20;;;;;;4939318;29;8799;-61
2022/04/09 03:05:54;;;;;;;;;9.00;8.00;17.60;49.10;;;;;;4938981;29;9609;-60
2022/04/09 03:08:20;;;;;;;;;11.67;11.67;17.40;49.50;;;;;;4939197;29;8810;-59
2022/04/09 03:10:46;;;;;;;;;14.67;12.00;17.10;51.10;;;;;;4938874;29;8791;-59
2022/04/09 03:13:11;;;;;;;;;11.67;11.67;17.00;51.50;;;;;;4938917;29;8857;-63
2022/04/09 03:15:37;;;;;;;;;13.67;12.33;17.30;50.80;;;;;;4938792;29;8806;-61
2022/04/09 03:18:03;;;;;;;;;13.33;11.67;17.50;50.20;;;;;;4937861;29;8802;-60
2022/04/09 03:20:29;;;;;;;;;14.00;14.00;17.40;50.30;;;;;;4938845;29;9778;-62
2022/04/09 03:22:55;;;;;;;;;13.00;11.33;17.00;52.40;;;;;;4938887;29;8767;-61
2022/04/09 03:25:20;;;;;;;;;12.00;12.00;17.20;50.90;;;;;;4938608;29;9496;-61
2022/04/09 03:27:46;;;;;;;;;11.33;10.33;17.20;51.00;;;;;;4938552;29;8805;-61
2022/04/09 03:30:12;;;;;;;;;11.00;11.00;17.50;50.10;;;;;;4938545;29;8786;-61
2022/04/09 03:32:39;;;;;;;;;12.33;11.00;17.80;49.00;;;;;;4938522;29;8791;-62
2022/04/09 03:35:06;;;;;;;;;14.33;14.33;18.10;48.00;;;;;;4938495;29;8801;-61
2022/04/09 03:37:35;;;;;;;;;14.00;12.67;17.80;49.00;;;;;;4938572;29;8810;-60
2022/04/09 03:40:04;;;;;;;;;12.33;12.33;17.80;49.00;;;;;;4938336;29;8814;-60
2022/04/09 03:42:30;;;;;;;;;14.00;14.00;18.20;47.90;;;;;;4938555;29;8787;-63
2022/04/09 03:44:56;;;;;;;;;14.00;13.00;18.00;48.20;;;;;;4938348;29;8779;-61
2022/04/09 03:47:22;;;;;;;;;12.00;12.00;18.00;48.20;;;;;;4938212;29;8803;-61
2022/04/09 03:49:48;;;;;;;;;11.67;11.67;18.00;48.40;;;;;;4938263;29;8768;-63
2022/04/09 03:52:14;;;;;;;;;10.33;10.33;17.70;49.00;;;;;;4938020;29;8964;-62
2022/04/09 03:54:40;;;;;;;;;14.00;13.00;17.20;50.50;;;;;;4938322;29;8806;-61
2022/04/09 03:57:06;;;;;;;;;13.00;13.00;17.50;49.80;;;;;;4938322;29;8775;-60
2022/04/09 03:59:32;;;;;;;;;13.00;13.00;17.60;49.60;;;;;;4937972;29;8916;-61
2022/04/09 04:01:58;;;;;;;;;9.33;9.33;17.30;50.80;;;;;;4937941;29;8827;-62
2022/04/09 04:04:23;;;;;;;;;13.00;13.00;17.30;51.00;;;;;;4937928;29;8790;-62
2022/04/09 04:06:49;;;;;;;;;12.00;12.00;17.20;51.60;;;;;;4937732;29;8791;-61
2022/04/09 04:09:16;;;;;;;;;14.33;13.67;16.80;52.80;;;;;;4937978;29;8791;-64
2022/04/09 04:11:45;;;;;;;;;13.00;13.00;16.90;52.70;;;;;;4937700;29;8901;-60
2022/04/09 04:14:12;;;;;;;;;11.00;11.00;16.80;53.00;;;;;;4937766;29;8783;-60
2022/04/09 04:16:38;;;;;;;;;14.67;14.00;16.80;52.60;;;;;;4937721;29;8810;-60
2022/04/09 04:19:04;;;;;;;;;17.33;17.33;17.10;51.60;;;;;;4937974;29;8806;-64
2022/04/09 04:21:30;;;;;;;;;22.33;21.33;17.30;51.10;;;;;;4937781;29;8822;-64
2022/04/09 04:23:56;;;;;;;;;29.00;25.67;17.30;51.20;;;;;;4937803;29;8810;-64
2022/04/09 04:26:22;;;;;;;;;25.67;24.00;17.20;51.70;;;;;;4937709;29;8817;-61
2022/04/09 04:28:51;;;;;;;;;23.00;22.00;16.90;52.80;;;;;;4937385;29;8787;-59
2022/04/09 04:31:18;;;;;;;;;18.67;16.67;16.90;53.10;;;;;;4937703;29;8787;-62
2022/04/09 04:33:44;;;;;;;;;17.67;14.00;16.90;53.60;;;;;;4937431;29;8815;-60
2022/04/09 04:36:10;;;;;;;;;15.00;14.00;16.90;53.20;;;;;;4937906;29;8802;-58
2022/04/09 04:38:36;;;;;;;;;13.67;13.33;17.20;52.10;;;;;;4939828;28;8890;-60
2022/04/09 04:41:04;;;;;;;;;16.00;16.00;17.60;51.10;;;;;;4946312;28;8823;-61
2022/04/09 04:43:30;;;;;;;;;18.00;17.67;18.20;49.30;;;;;;4954331;28;8784;-59
2022/04/09 04:45:57;;;;;;;;;17.00;16.67;18.00;49.60;;;;;;4944785;28;8802;-60
2022/04/09 04:48:23;;;;;;;;;18.33;16.67;18.30;48.80;;;;;;4955290;28;8772;-59
2022/04/09 04:50:48;;;;;;;;;20.00;19.00;18.40;48.70;;;;;;4960455;28;9776;-60
2022/04/09 04:53:14;;;;;;;;;21.00;19.67;18.30;49.20;;;;;;4975894;28;8805;-59
2022/04/09 04:55:40;;;;;;;;;19.67;18.33;18.30;48.90;;;;;;4961124;28;8781;-59
2022/04/09 04:58:06;;;;;;;;;18.00;17.33;18.60;48.10;;;;;;4948550;28;8814;-58
2022/04/09 05:00:33;;;;;;;;;32.67;30.00;18.50;48.20;;;;;;4950288;28;9457;-58
2022/04/09 05:02:59;;;;;;;;;31.00;27.67;17.90;50.50;;;;;;4939499;29;8812;-59
2022/04/09 05:05:25;;;;;;;;;29.33;28.67;17.40;52.30;;;;;;4937080;29;8781;-59
2022/04/09 05:07:53;;;;;;;;;32.00;29.33;17.20;53.40;;;;;;4959204;28;8829;-67
2022/04/09 05:10:21;;;;;;;;;25.67;23.00;17.60;52.20;;;;;;4973669;28;8869;-58
2022/04/09 05:12:48;;;;;;;;;25.33;25.33;18.00;51.10;;;;;;4975238;28;9482;-60
2022/04/09 05:15:15;;;;;;;;;24.33;23.00;18.60;49.30;;;;;;4975690;28;8867;-60
2022/04/09 05:17:41;;;;;;;;;34.00;25.67;19.00;48.10;;;;;;4975387;28;8781;-60
2022/04/09 05:20:14;;;;;;;;;26.33;23.67;19.30;47.40;;;;;;4975471;28;9528;-60
2022/04/09 05:22:46;;;;;;;;;22.33;20.33;19.30;46.70;;;;;;4975277;28;8784;-60
2022/04/09 05:25:13;;;;;;;;;13.33;13.33;19.20;46.80;;;;;;4975322;28;8899;-60
2022/04/09 05:27:43;;;;;;;;;12.67;12.67;18.70;48.00;;;;;;4958240;28;8811;-60
2022/04/09 05:30:09;;;;;;;;;12.33;11.33;18.00;50.20;;;;;;4975521;28;8769;-59
2022/04/09 05:32:36;;;;;;;;;13.67;13.67;18.10;50.10;;;;;;4958136;28;8777;-61
2022/04/09 05:35:04;;;;;;;;;13.33;13.33;18.20;49.70;;;;;;4975218;28;8777;-61
2022/04/09 05:37:31;;;;;;;;;15.00;13.33;18.30;49.30;;;;;;4975124;28;8809;-60
2022/04/09 05:39:57;;;;;;;;;17.33;17.00;17.90;50.40;;;;;;4958447;28;8793;-60
2022/04/09 05:42:25;;;;;;;;;19.33;18.33;18.00;50.40;;;;;;4978005;28;8761;-60
2022/04/09 05:44:51;;;;;;;;;22.33;20.00;17.90;50.80;;;;;;4979166;28;8785;-60
2022/04/09 05:47:17;;;;;;;;;21.33;21.33;18.30;49.70;;;;;;4978948;28;8781;-62
2022/04/09 05:49:42;;;;;;;;;21.33;20.00;18.10;50.70;;;;;;4978856;28;8785;-59
2022/04/09 05:52:08;;;;;;;;;18.67;17.00;17.90;52.00;;;;;;4978647;28;8821;-61
2022/04/09 05:54:34;;;;;;;;;17.33;17.33;18.10;50.90;;;;;;4978690;28;8801;-59
2022/04/09 05:57:01;;;;;;;;;15.67;15.67;18.00;51.10;;;;;;4978910;28;8773;-61
2022/04/09 05:59:27;;;;;;;;;21.33;17.33;18.10;50.50;;;;;;4978661;28;8787;-59
2022/04/09 06:01:53;;;;;;;;;15.67;15.67;18.00;51.90;;;;;;4978676;28;8805;-60
2022/04/09 06:04:20;;;;;;;;;12.00;12.00;18.10;50.80;;;;;;4978926;28;9427;-62
2022/04/09 06:06:49;;;;;;;;;12.00;12.00;18.10;51.20;;;;;;4978460;28;8773;-60
2022/04/09 06:09:16;;;;;;;;;14.33;14.33;18.30;50.60;;;;;;4978856;28;8768;-61
2022/04/09 06:11:42;;;;;;;;;11.33;11.33;18.40;50.70;;;;;;4978468;28;8907;-61
2022/04/09 06:14:09;;;;;;;;;13.67;12.00;18.30;51.30;;;;;;4978461;28;8780;-61
2022/04/09 06:16:38;;;;;;;;;13.67;12.00;18.50;50.80;;;;;;4978338;28;8789;-59
2022/04/09 06:19:06;;;;;;;;;15.67;15.33;18.90;49.70;;;;;;4978560;28;8776;-60
2022/04/09 06:21:33;;;;;;;;;15.00;15.00;19.30;48.40;;;;;;4978221;28;8931;-60
2022/04/09 06:24:00;;;;;;;;;14.67;14.67;19.40;47.70;;;;;;4978267;28;8896;-63
2022/04/09 06:26:26;;;;;;;;;14.00;14.00;19.70;47.00;;;;;;4978436;28;8855;-63
2022/04/09 06:28:51;;;;;;;;;13.33;13.33;19.90;46.80;;;;;;4978305;28;8895;-59
2022/04/09 06:31:17;;;;;;;;;14.33;14.33;20.10;46.40;;;;;;4978281;28;8780;-61
2022/04/09 06:33:43;;;;;;;;;16.00;15.00;20.30;45.80;;;;;;4978079;28;8765;-60
2022/04/09 06:36:09;;;;;;;;;12.00;12.00;20.00;46.90;;;;;;4978287;28;8764;-60
2022/04/09 06:38:34;;;;;;;;;13.33;13.33;19.90;47.10;;;;;;4978273;28;8833;-60
2022/04/09 06:41:00;;;;;;;;;12.00;12.00;19.60;47.70;;;;;;4978088;28;8824;-60
2022/04/09 06:43:26;;;;;;;;;14.33;14.33;19.80;47.70;;;;;;4978134;28;8773;-63
2022/04/09 06:45:52;;;;;;;;;15.00;14.00;19.60;49.70;;;;;;4977825;28;9510;-63
2022/04/09 06:48:18;;;;;;;;;13.00;13.00;20.00;47.60;;;;;;4978100;28;8765;-60
2022/04/09 06:50:44;;;;;;;;;12.67;11.33;20.30;45.60;;;;;;4977680;28;9471;-59
2022/04/09 06:53:10;;;;;;;;;11.67;11.67;19.60;47.20;;;;;;4977446;28;8777;-59
2022/04/09 06:55:36;;;;;;;;;10.67;9.67;19.60;48.30;;;;;;4977644;28;8777;-62
2022/04/09 06:58:03;;;;;;;;;16.67;14.00;19.90;46.40;;;;;;4977457;28;8911;-63
2022/04/09 07:00:29;;;;;;;;;11.67;10.67;20.00;46.20;;;;;;4960375;28;8816;-61
2022/04/09 07:02:55;;;;;;;;;13.00;12.00;20.20;45.30;;;;;;4977516;28;8789;-62
2022/04/09 07:05:21;;;;;;;;;46.33;38.67;20.50;44.70;;;;;;4977586;28;8784;-63
2022/04/09 07:07:51;;;;;;;;;19.00;17.67;20.70;44.10;;;;;;4977453;28;8805;-61
2022/04/09 07:10:17;;;;;;;;;21.33;20.00;20.60;44.10;;;;;;4977366;28;8780;-63
2022/04/09 07:12:45;;;;;;;;;16.33;16.33;20.60;44.20;;;;;;4977512;28;8769;-63
2022/04/09 07:15:11;;;;;;;;;14.00;13.67;20.90;43.40;;;;;;4977219;28;8773;-62
2022/04/09 07:17:40;;;;;;;;;12.67;12.00;21.00;42.80;;;;;;4977479;28;8781;-67
2022/04/09 07:20:07;;;;;;;;;17.33;16.00;21.20;42.20;;;;;;4977006;28;8879;-66
2022/04/09 07:22:36;;;;;;;;;12.67;12.67;21.60;42.00;;;;;;4977143;28;8777;-68
2022/04/09 07:25:03;;;;;;;;;15.00;11.67;21.50;41.20;;;;;;4977316;28;8773;-66
2022/04/09 07:27:40;;;;;;;;;10.67;10.67;21.60;40.80;;;;;;4977232;28;8780;-62
2022/04/09 07:30:14;;;;;;;;;10.00;10.00;21.50;41.60;;;;;;4977193;28;8777;-60
2022/04/09 07:32:41;;;;;;;;;4.00;4.00;21.50;41.20;;;;;;4977397;28;8768;-61
2022/04/09 07:35:08;;;;;;;;;10.33;10.33;21.70;39.80;;;;;;4976801;28;8791;-61
2022/04/09 07:37:43;;;;;;;;;10.33;10.33;21.80;39.50;;;;;;4976588;28;8845;-59
2022/04/09 07:40:10;;;;;;;;;10.33;10.33;21.50;40.10;;;;;;4976517;28;8828;-60
2022/04/09 07:42:37;;;;;;;;;9.33;8.00;21.50;40.10;;;;;;4976623;28;8800;-61
2022/04/09 07:45:03;;;;;;;;;9.33;9.33;21.60;39.70;;;;;;4976809;28;8789;-60
2022/04/09 07:47:30;;;;;;;;;8.33;8.33;21.40;39.40;;;;;;4976932;28;8777;-66
2022/04/09 07:49:56;;;;;;;;;13.00;11.33;21.20;40.20;;;;;;4976486;28;8899;-64
2022/04/09 07:52:22;;;;;;;;;10.00;9.00;21.60;40.10;;;;;;4976567;28;11558;-63
2022/04/09 07:54:47;;;;;;;;;12.33;11.33;21.40;39.90;;;;;;4976606;28;8955;-65
2022/04/09 07:57:13;;;;;;;;;11.00;10.33;21.40;40.50;;;;;;4976246;28;9435;-66
2022/04/09 07:59:39;;;;;;;;;10.00;10.00;21.60;40.00;;;;;;4976608;28;8764;-65
2022/04/09 08:02:05;;;;;;;;;12.33;11.00;21.70;39.40;;;;;;4976122;28;8879;-66
2022/04/09 08:04:31;;;;;;;;;10.67;10.67;21.80;39.10;;;;;;4975679;28;8764;-63
2022/04/09 08:06:56;;;;;;;;;10.33;10.00;21.90;39.90;;;;;;4976434;28;8799;-62
2022/04/09 08:09:22;;;;;;;;;9.67;9.67;22.10;39.40;;;;;;4976270;28;9420;-61
2022/04/09 08:11:48;;;;;;;;;11.00;9.33;22.10;39.30;;;;;;4976458;28;8871;-67
2022/04/09 08:14:14;;;;;;;;;9.00;9.00;22.20;38.60;;;;;;4976212;28;8831;-64
2022/04/09 08:16:40;;;;;;;;;10.00;10.00;22.00;38.50;;;;;;4976212;28;8773;-66
2022/04/09 08:19:07;;;;;;;;;10.33;10.00;22.00;38.60;;;;;;4976379;28;8781;-66
2022/04/09 08:21:33;;;;;;;;;11.67;11.67;22.00;38.40;;;;;;4975952;28;8817;-63
2022/04/09 08:23:59;;;;;;;;;10.33;10.33;22.30;38.50;;;;;;4975953;28;11466;-62
2022/04/09 08:26:25;;;;;;;;;14.00;12.67;22.50;38.50;;;;;;4976294;28;8795;-62
2022/04/09 08:28:51;;;;;;;;;10.00;9.00;23.00;37.20;;;;;;4975987;28;8777;-62
2022/04/09 08:31:17;;;;;;;;;8.00;8.00;22.40;37.40;;;;;;4976220;28;8773;-63
2022/04/09 08:33:43;;;;;;;;;9.67;8.67;22.50;37.60;;;;;;4975953;28;8843;-63
2022/04/09 08:36:09;;;;;;;;;8.67;8.67;22.60;37.60;;;;;;4975767;28;8776;-62
2022/04/09 08:38:34;;;;;;;;;17.33;16.33;22.50;37.00;;;;;;4976083;28;8813;-62
2022/04/09 08:41:04;;;;;;;;;12.67;12.67;22.10;35.80;;;;;;4975694;28;8931;-61
2022/04/09 08:43:31;;;;;;;;;6.67;6.67;22.10;36.90;;;;;;4976068;28;8784;-62
2022/04/09 08:46:02;;;;;;;;;9.33;8.00;22.50;36.90;;;;;;4975861;28;11450;-65
2022/04/09 08:48:28;;;;;;;;;11.33;11.33;22.60;36.20;;;;;;4975528;28;11427;-64
2022/04/09 08:50:55;;;;;;;;;9.67;8.67;22.60;35.90;;;;;;4975469;28;11615;-60
2022/04/09 08:53:21;;;;;;;;;6.00;6.00;22.80;35.20;;;;;;4975274;28;11578;-59
2022/04/09 08:55:48;;;;;;;;;9.67;9.67;22.60;35.60;;;;;;4975716;28;11452;-61
2022/04/09 08:58:14;;;;;;;;;7.33;7.00;22.80;35.20;;;;;;4975378;28;11526;-61
2022/04/09 09:00:41;;;;;;;;;9.00;8.00;22.80;35.60;;;;;;4975136;28;11464;-59
2022/04/09 09:03:10;;;;;;;;;10.33;9.67;23.20;34.50;;;;;;4975238;28;11450;-63
2022/04/09 09:05:38;;;;;;;;;6.67;6.67;23.00;34.40;;;;;;4975481;28;11517;-61
2022/04/09 09:08:05;;;;;;;;;6.00;6.00;23.00;34.40;;;;;;4975370;28;11435;-61
2022/04/09 09:10:32;;;;;;;;;4.33;4.33;22.90;35.20;;;;;;4975290;28;11509;-62
2022/04/09 09:13:01;;;;;;;;;6.33;6.33;23.10;35.10;;;;;;4975078;28;11559;-61
2022/04/09 09:15:28;;;;;;;;;9.67;9.67;23.00;35.60;;;;;;4975348;28;11455;-60
2022/04/09 09:17:58;;;;;;;;;5.00;5.00;23.10;34.90;;;;;;4976589;28;11563;-62
2022/04/09 09:20:24;;;;;;;;;9.67;9.00;23.40;34.60;;;;;;4965078;28;11502;-60
2022/04/09 09:22:51;;;;;;;;;7.00;7.00;23.90;34.20;;;;;;4951604;28;11465;-61
2022/04/09 09:25:17;;;;;;;;;7.25;7.25;23.90;32.80;;;;;;4960483;28;11431;-59
2022/04/09 09:27:42;;;;;;;;;10.67;10.67;24.10;32.40;;;;;;4957401;28;11441;-60
2022/04/09 09:30:13;;;;;;;;;8.25;6.25;23.90;31.60;;;;;;4952531;28;11479;-60
2022/04/09 09:32:41;;;;;;;;;10.00;8.75;23.60;32.60;;;;;;4948973;28;8771;-60
2022/04/09 09:35:12;;;;;;;;;6.00;6.00;24.00;32.60;;;;;;4949397;29;12291;-59
2022/04/09 09:37:38;;;;;;;;;4.25;4.25;24.00;31.50;;;;;;4944937;28;11540;-59
2022/04/09 09:40:04;;;;;;;;;7.00;7.00;23.90;31.80;;;;;;4948847;29;11564;-64
2022/04/09 09:42:33;;;;;;;;;5.00;5.00;23.00;33.00;;;;;;4945857;28;8905;-64
2022/04/09 09:44:59;;;;;;;;;5.33;5.00;22.70;34.80;;;;;;4945581;29;11481;-63
2022/04/09 09:47:25;;;;;;;;;7.67;6.67;22.70;33.70;;;;;;4940363;29;11494;-61
2022/04/09 09:49:59;;;;;;;;;5.00;5.00;23.00;32.90;;;;;;4951009;28;8830;-61
2022/04/09 09:52:27;;;;;;;;;6.00;6.00;23.30;32.80;;;;;;4921463;29;9510;-62
2022/04/09 09:54:59;;;;;;;;;6.00;6.00;23.00;32.80;;;;;;4926894;29;11540;-61
2022/04/09 09:57:28;;;;;;;;;5.67;5.67;22.90;32.80;;;;;;4936823;29;11465;-61
2022/04/09 09:59:57;;;;;;;;;6.33;6.33;22.70;34.20;;;;;;4930696;29;11502;-59
2022/04/09 10:02:24;;;;;;;;;6.67;5.67;22.50;34.10;;;;;;4938815;29;11450;-58
2022/04/09 10:04:53;;;;;;;;;4.33;4.33;22.50;34.50;;;;;;4934274;29;12084;-57
2022/04/09 10:07:20;;;;;;;;;6.00;4.33;22.40;34.00;;;;;;4928298;29;11440;-58
2022/04/09 10:09:49;;;;;;;;;3.33;2.33;22.50;33.60;;;;;;4929553;29;11576;-57
2022/04/09 10:12:18;;;;;;;;;6.00;6.00;22.80;33.60;;;;;;4939941;29;11517;-58
2022/04/09 10:14:58;;;;;;;;;5.00;5.00;23.10;33.80;;;;;;4939893;29;12162;-58
2022/04/09 10:17:25;;;;;;;;;11.67;10.00;23.10;33.00;;;;;;4939718;29;11537;-59
2022/04/09 10:19:59;;;;;;;;;5.67;5.67;23.30;33.40;;;;;;4939369;29;11508;-58
2022/04/09 10:22:58;;;;;;;;;2.00;2.00;23.50;33.10;;;;;;4939809;29;11533;-58
2022/04/09 10:25:29;;;;;;;;;5.67;5.67;23.60;32.80;;;;;;4918280;29;11568;-58
2022/04/09 10:28:03;;;;;;;;;6.00;6.00;23.30;33.60;;;;;;4917574;29;11626;-59
2022/04/09 10:30:41;;;;;;;;;6.00;6.00;23.60;33.20;;;;;;4918219;29;11693;-59
2022/04/09 10:33:27;;;;;;;;;5.00;5.00;23.50;32.30;;;;;;4918315;29;11576;-59
2022/04/09 10:35:53;;;;;;;;;4.75;4.75;23.90;31.90;;;;;;4918231;29;11603;-58
2022/04/09 10:38:20;;;;;;;;;6.00;6.00;23.90;31.30;;;;;;4907114;29;11535;-59
2022/04/09 10:40:46;;;;;;;;;6.00;6.00;23.80;32.10;;;;;;4899379;29;8848;-59
2022/04/09 10:43:38;;;;;;;;;5.75;5.75;23.70;31.80;;;;;;4899354;29;11409;-58
2022/04/09 10:46:08;;;;;;;;;5.75;5.75;23.90;31.80;;;;;;4886547;29;8857;-59
2022/04/09 10:48:44;;;;;;;;;6.00;6.00;24.10;31.40;;;;;;4881177;29;11577;-58
2022/04/09 10:51:14;;;;;;;;;8.50;7.00;23.90;31.60;;;;;;4905641;29;11592;-57
2022/04/09 10:53:44;;;;;;;;;6.25;6.25;23.90;31.40;;;;;;4917905;29;11543;-58
2022/04/09 10:56:21;;;;;;;;;6.50;6.50;24.00;30.80;;;;;;4917949;29;11661;-57
2022/04/09 10:59:00;;;;;;;;;7.00;7.00;24.00;30.00;;;;;;4917914;29;11562;-57
2022/04/09 11:01:48;;;;;;;;;5.75;5.75;24.80;29.60;;;;;;4925913;29;11643;-58
2022/04/09 11:07:07;;;;;;;;;9.75;8.50;25.00;29.70;;;;;;4956305;28;11492;-59
2022/04/09 11:09:51;;;;;;;;;5.25;5.25;24.00;30.30;;;;;;4958079;28;11644;-59
2022/04/09 11:12:19;;;;;;;;;8.00;8.00;23.80;30.70;;;;;;4958092;28;11496;-59
2022/04/09 11:14:51;;;;;;;;;8.67;8.33;24.20;30.00;;;;;;4957888;28;11632;-59
2022/04/09 11:17:40;;;;;;;;;6.00;6.00;24.30;30.30;;;;;;4951794;28;12207;-58
2022/04/09 11:20:22;;;;;;;;;5.00;5.00;24.60;29.20;;;;;;4938445;29;11516;-59
2022/04/09 11:22:52;;;;;;;;;5.25;5.25;24.40;29.30;;;;;;4939125;29;11604;-60
2022/04/09 11:25:29;;;;;;;;;10.00;8.00;24.60;29.20;;;;;;4953741;28;11507;-58
2022/04/09 11:28:17;;;;;;;;;7.50;7.50;24.90;28.50;;;;;;4957632;28;11505;-58
2022/04/09 11:31:00;;;;;;;;;6.00;6.00;25.30;28.80;;;;;;4957934;28;11544;-58
2022/04/09 11:33:27;;;;;;;;;5.75;5.75;24.00;29.20;;;;;;4948540;28;11522;-59
2022/04/09 11:35:53;;;;;;;;;6.67;6.67;23.70;30.30;;;;;;4943736;28;11531;-58
2022/04/09 11:38:22;;;;;;;;;5.33;5.00;23.70;29.90;;;;;;4938098;29;11613;-59
2022/04/09 11:40:48;;;;;;;;;8.00;6.00;23.80;30.20;;;;;;4937753;29;11573;-58
2022/04/09 11:43:18;;;;;;;;;6.25;5.75;23.80;30.00;;;;;;4956115;28;11542;-59
2022/04/09 11:45:44;;;;;;;;;5.67;5.00;23.50;29.80;;;;;;4957679;28;8951;-59
2022/04/09 11:48:28;;;;;;;;;5.67;5.00;23.20;30.10;;;;;;4957447;28;11510;-58
2022/04/09 11:50:54;;;;;;;;;6.33;6.33;23.20;30.80;;;;;;4951002;28;11580;-59
2022/04/09 11:53:24;;;;;;;;;5.50;5.50;23.40;31.00;;;;;;4946029;28;11536;-61
2022/04/09 11:56:01;;;;;;;;;7.33;7.33;23.60;30.70;;;;;;4938328;29;8821;-59
2022/04/09 11:58:32;;;;;;;;;6.00;6.00;23.70;30.30;;;;;;4937674;29;11551;-59
2022/04/09 12:00:57;;;;;;;;;7.33;6.00;23.90;29.80;;;;;;4939701;28;11568;-59
2022/04/09 12:03:23;;;;;;;;;6.00;6.00;23.50;30.40;;;;;;4950741;28;12253;-59
2022/04/09 12:05:51;;;;;;;;;7.33;6.33;23.20;30.90;;;;;;4946626;29;8855;-59
2022/04/09 12:08:24;;;;;;;;;4.00;4.00;23.20;30.90;;;;;;4938126;29;8771;-57
2022/04/09 12:10:50;;;;;;;;;6.67;6.67;23.00;32.00;;;;;;4937965;28;11625;-59
2022/04/09 12:13:22;;;;;;;;;7.00;5.67;23.00;30.80;;;;;;4946474;28;11557;-58
2022/04/09 12:15:48;;;;;;;;;5.67;5.67;23.00;31.10;;;;;;4957097;28;8838;-59
2022/04/09 12:18:25;;;;;;;;;9.33;8.00;23.20;30.90;;;;;;4956668;28;11547;-58
2022/04/09 12:20:51;;;;;;;;;8.00;7.00;23.60;30.70;;;;;;4957018;28;8812;-60
2022/04/09 12:23:28;;;;;;;;;7.33;7.33;23.70;30.60;;;;;;4949725;28;11499;-59
2022/04/09 12:25:54;;;;;;;;;5.00;5.00;23.40;30.80;;;;;;4937915;29;8798;-58
2022/04/09 12:28:22;;;;;;;;;6.00;6.00;23.50;30.60;;;;;;4937406;29;11534;-59
2022/04/09 12:30:51;;;;;;;;;8.00;6.33;23.70;30.40;;;;;;4937784;29;8815;-58
2022/04/09 12:33:18;;;;;;;;;4.67;4.33;23.40;30.80;;;;;;4939977;28;11532;-58
2022/04/09 12:35:44;;;;;;;;;6.00;6.00;23.40;30.20;;;;;;4945982;29;11656;-58
2022/04/09 12:38:10;;;;;;;;;9.00;6.00;23.40;30.70;;;;;;4937575;29;11523;-59
2022/04/09 12:40:38;;;;;;;;;8.00;8.00;23.40;30.60;;;;;;4937131;29;11552;-59
2022/04/09 12:43:37;;;;;;;;;7.67;7.00;23.60;30.50;;;;;;4937146;29;12204;-59
2022/04/09 12:46:05;;;;;;;;;7.33;7.33;23.60;30.90;;;;;;4938568;28;11571;-58
2022/04/09 12:48:51;;;;;;;;;8.00;5.00;23.70;30.40;;;;;;4945558;29;11540;-58
2022/04/09 12:51:22;;;;;;;;;7.00;6.67;23.30;30.80;;;;;;4936659;29;11689;-58